sensor_id;sensor_type;location;lat;lon;timestamp;P1;durP1;ratioP1;P2;durP2;ratioP2
15307;SDS011;7755;52.208;6.964;2022-08-26T00:03:01;11.40;;;10.40;;
15307;SDS011;7755;52.208;6.964;2022-08-26T00:07:03;11.70;;;10.70;;
15307;SDS011;7755;52.208;6.964;2022-08-26T00:11:05;12.13;;;10.67;;
15307;SDS011;7755;52.208;6.964;2022-08-26T00:15:10;11.33;;;10.23;;
15307;SDS011;7755;52.208;6.964;2022-08-26T00:19:17;12.23;;;11.13;;
15307;SDS011;7755;52.208;6.964;2022-08-26T00:23:20;14.27;;;12.87;;
15307;SDS011;7755;52.208;6.964;2022-08-26T00:27:22;15.30;;;13.90;;
15307;SDS011;7755;52.208;6.964;2022-08-26T00:31:24;16.83;;;15.40;;
15307;SDS011;7755;52.208;6.964;2022-08-26T00:35:28;24.50;;;22.10;;
15307;SDS011;7755;52.208;6.964;2022-08-26T00:39:30;25.93;;;23.40;;
15307;SDS011;7755;52.208;6.964;2022-08-26T00:43:33;30.83;;;27.83;;
15307;SDS011;7755;52.208;6.964;2022-08-26T00:47:37;32.47;;;29.43;;
15307;SDS011;7755;52.208;6.964;2022-08-26T00:51:46;45.37;;;40.90;;
15307;SDS011;7755;52.208;6.964;2022-08-26T00:55:52;44.60;;;40.17;;
15307;SDS011;7755;52.208;6.964;2022-08-26T00:59:59;42.73;;;38.50;;
15307;SDS011;7755;52.208;6.964;2022-08-26T01:04:05;47.33;;;42.57;;
15307;SDS011;7755;52.208;6.964;2022-08-26T01:08:08;55.97;;;50.53;;
15307;SDS011;7755;52.208;6.964;2022-08-26T01:12:11;52.53;;;47.43;;
15307;SDS011;7755;52.208;6.964;2022-08-26T01:16:14;54.43;;;49.17;;
15307;SDS011;7755;52.208;6.964;2022-08-26T01:20:18;61.83;;;55.73;;
15307;SDS011;7755;52.208;6.964;2022-08-26T01:24:30;69.00;;;61.93;;
15307;SDS011;7755;52.208;6.964;2022-08-26T01:28:32;69.37;;;62.50;;
15307;SDS011;7755;52.208;6.964;2022-08-26T01:32:36;72.77;;;65.23;;
15307;SDS011;7755;52.208;6.964;2022-08-26T01:36:39;67.40;;;60.80;;
15307;SDS011;7755;52.208;6.964;2022-08-26T01:40:43;72.77;;;65.10;;
15307;SDS011;7755;52.208;6.964;2022-08-26T01:44:48;73.27;;;66.10;;
15307;SDS011;7755;52.208;6.964;2022-08-26T01:48:54;73.90;;;66.50;;
15307;SDS011;7755;52.208;6.964;2022-08-26T01:53:02;75.07;;;67.20;;
15307;SDS011;7755;52.208;6.964;2022-08-26T01:57:07;75.83;;;68.17;;
15307;SDS011;7755;52.208;6.964;2022-08-26T02:01:09;81.13;;;72.57;;
15307;SDS011;7755;52.208;6.964;2022-08-26T02:05:13;74.70;;;66.87;;
15307;SDS011;7755;52.208;6.964;2022-08-26T02:09:16;70.13;;;62.53;;
15307;SDS011;7755;52.208;6.964;2022-08-26T02:13:21;70.87;;;63.60;;
15307;SDS011;7755;52.208;6.964;2022-08-26T02:17:28;69.83;;;62.80;;
15307;SDS011;7755;52.208;6.964;2022-08-26T02:21:35;73.70;;;66.00;;
15307;SDS011;7755;52.208;6.964;2022-08-26T02:25:42;72.20;;;64.60;;
15307;SDS011;7755;52.208;6.964;2022-08-26T02:29:52;73.50;;;65.90;;
15307;SDS011;7755;52.208;6.964;2022-08-26T02:34:06;70.80;;;63.33;;
15307;SDS011;7755;52.208;6.964;2022-08-26T02:38:09;71.07;;;63.40;;
15307;SDS011;7755;52.208;6.964;2022-08-26T02:42:11;78.60;;;69.00;;
15307;SDS011;7755;52.208;6.964;2022-08-26T02:46:15;73.90;;;62.03;;
15307;SDS011;7755;52.208;6.964;2022-08-26T02:50:17;68.83;;;61.37;;
15307;SDS011;7755;52.208;6.964;2022-08-26T02:54:19;77.03;;;68.37;;
15307;SDS011;7755;52.208;6.964;2022-08-26T02:58:21;68.97;;;61.20;;
15307;SDS011;7755;52.208;6.964;2022-08-26T03:02:25;84.93;;;70.20;;
15307;SDS011;7755;52.208;6.964;2022-08-26T03:06:27;78.07;;;64.97;;
15307;SDS011;7755;52.208;6.964;2022-08-26T03:10:29;78.30;;;67.03;;
15307;SDS011;7755;52.208;6.964;2022-08-26T03:14:31;72.93;;;64.53;;
15307;SDS011;7755;52.208;6.964;2022-08-26T03:18:35;75.23;;;66.67;;
15307;SDS011;7755;52.208;6.964;2022-08-26T03:22:38;66.67;;;59.40;;
15307;SDS011;7755;52.208;6.964;2022-08-26T03:26:40;68.57;;;61.13;;
15307;SDS011;7755;52.208;6.964;2022-08-26T03:30:42;70.30;;;59.53;;
15307;SDS011;7755;52.208;6.964;2022-08-26T03:34:45;63.60;;;56.13;;
15307;SDS011;7755;52.208;6.964;2022-08-26T03:38:47;67.00;;;57.87;;
15307;SDS011;7755;52.208;6.964;2022-08-26T03:42:50;71.33;;;58.60;;
15307;SDS011;7755;52.208;6.964;2022-08-26T03:46:53;62.90;;;56.03;;
15307;SDS011;7755;52.208;6.964;2022-08-26T03:50:57;66.17;;;56.37;;
15307;SDS011;7755;52.208;6.964;2022-08-26T03:54:59;57.47;;;51.17;;
15307;SDS011;7755;52.208;6.964;2022-08-26T03:59:01;57.67;;;50.73;;
15307;SDS011;7755;52.208;6.964;2022-08-26T04:03:03;55.37;;;48.80;;
15307;SDS011;7755;52.208;6.964;2022-08-26T04:07:06;58.67;;;50.93;;
15307;SDS011;7755;52.208;6.964;2022-08-26T04:11:08;56.57;;;50.30;;
15307;SDS011;7755;52.208;6.964;2022-08-26T04:15:17;60.83;;;51.07;;
15307;SDS011;7755;52.208;6.964;2022-08-26T04:19:21;57.03;;;48.67;;
15307;SDS011;7755;52.208;6.964;2022-08-26T04:23:25;54.20;;;48.43;;
15307;SDS011;7755;52.208;6.964;2022-08-26T04:27:27;53.97;;;48.07;;
15307;SDS011;7755;52.208;6.964;2022-08-26T04:31:29;51.10;;;45.00;;
15307;SDS011;7755;52.208;6.964;2022-08-26T04:35:31;52.97;;;47.40;;
15307;SDS011;7755;52.208;6.964;2022-08-26T04:39:36;48.23;;;42.90;;
15307;SDS011;7755;52.208;6.964;2022-08-26T04:43:38;47.03;;;41.93;;
15307;SDS011;7755;52.208;6.964;2022-08-26T04:51:56;42.83;;;37.93;;
15307;SDS011;7755;52.208;6.964;2022-08-26T04:55:59;49.13;;;42.47;;
15307;SDS011;7755;52.208;6.964;2022-08-26T05:00:02;39.73;;;35.27;;
15307;SDS011;7755;52.208;6.964;2022-08-26T05:04:05;42.73;;;38.20;;
15307;SDS011;7755;52.208;6.964;2022-08-26T05:08:08;46.47;;;41.10;;
15307;SDS011;7755;52.208;6.964;2022-08-26T05:12:12;43.07;;;38.50;;
15307;SDS011;7755;52.208;6.964;2022-08-26T05:16:14;41.40;;;37.20;;
15307;SDS011;7755;52.208;6.964;2022-08-26T05:20:16;40.77;;;36.53;;
15307;SDS011;7755;52.208;6.964;2022-08-26T05:24:18;40.37;;;36.07;;
15307;SDS011;7755;52.208;6.964;2022-08-26T05:28:21;42.10;;;38.03;;
15307;SDS011;7755;52.208;6.964;2022-08-26T05:32:23;43.13;;;38.80;;
15307;SDS011;7755;52.208;6.964;2022-08-26T05:36:27;43.93;;;39.47;;
15307;SDS011;7755;52.208;6.964;2022-08-26T05:40:32;42.70;;;38.40;;
15307;SDS011;7755;52.208;6.964;2022-08-26T05:44:38;40.93;;;36.63;;
15307;SDS011;7755;52.208;6.964;2022-08-26T05:48:40;37.50;;;33.60;;
15307;SDS011;7755;52.208;6.964;2022-08-26T05:52:42;40.03;;;35.83;;
15307;SDS011;7755;52.208;6.964;2022-08-26T05:56:44;36.53;;;31.67;;
15307;SDS011;7755;52.208;6.964;2022-08-26T06:00:56;37.37;;;33.67;;
15307;SDS011;7755;52.208;6.964;2022-08-26T06:05:02;40.23;;;35.87;;
15307;SDS011;7755;52.208;6.964;2022-08-26T06:09:04;38.60;;;34.47;;
15307;SDS011;7755;52.208;6.964;2022-08-26T06:13:06;38.00;;;34.20;;
15307;SDS011;7755;52.208;6.964;2022-08-26T06:17:11;37.57;;;33.70;;
15307;SDS011;7755;52.208;6.964;2022-08-26T06:21:14;37.87;;;33.83;;
15307;SDS011;7755;52.208;6.964;2022-08-26T06:25:17;39.17;;;34.50;;
15307;SDS011;7755;52.208;6.964;2022-08-26T06:29:36;36.17;;;32.50;;
15307;SDS011;7755;52.208;6.964;2022-08-26T06:33:40;34.47;;;30.90;;
15307;SDS011;7755;52.208;6.964;2022-08-26T06:37:44;35.80;;;32.10;;
15307;SDS011;7755;52.208;6.964;2022-08-26T06:41:46;38.03;;;34.20;;
15307;SDS011;7755;52.208;6.964;2022-08-26T06:45:58;38.43;;;34.03;;
15307;SDS011;7755;52.208;6.964;2022-08-26T06:50:02;36.97;;;32.97;;
15307;SDS011;7755;52.208;6.964;2022-08-26T06:54:05;36.57;;;32.77;;
15307;SDS011;7755;52.208;6.964;2022-08-26T06:58:08;38.23;;;34.30;;
15307;SDS011;7755;52.208;6.964;2022-08-26T07:02:10;37.57;;;33.47;;
15307;SDS011;7755;52.208;6.964;2022-08-26T07:06:14;34.57;;;31.10;;
15307;SDS011;7755;52.208;6.964;2022-08-26T07:10:18;35.70;;;31.40;;
15307;SDS011;7755;52.208;6.964;2022-08-26T07:14:20;38.93;;;34.57;;
15307;SDS011;7755;52.208;6.964;2022-08-26T07:18:22;36.63;;;32.63;;
15307;SDS011;7755;52.208;6.964;2022-08-26T07:22:25;32.63;;;29.37;;
15307;SDS011;7755;52.208;6.964;2022-08-26T07:26:28;32.27;;;29.03;;
15307;SDS011;7755;52.208;6.964;2022-08-26T07:34:48;31.53;;;28.27;;
15307;SDS011;7755;52.208;6.964;2022-08-26T07:38:51;29.10;;;26.00;;
15307;SDS011;7755;52.208;6.964;2022-08-26T07:42:53;29.87;;;27.00;;
15307;SDS011;7755;52.208;6.964;2022-08-26T07:46:55;26.27;;;23.47;;
15307;SDS011;7755;52.208;6.964;2022-08-26T07:50:58;29.40;;;26.33;;
15307;SDS011;7755;52.208;6.964;2022-08-26T07:55:02;28.83;;;24.90;;
15307;SDS011;7755;52.208;6.964;2022-08-26T07:59:05;26.03;;;23.37;;
15307;SDS011;7755;52.208;6.964;2022-08-26T08:03:08;25.07;;;22.30;;
15307;SDS011;7755;52.208;6.964;2022-08-26T08:07:10;26.53;;;23.73;;
15307;SDS011;7755;52.208;6.964;2022-08-26T08:11:13;23.33;;;20.90;;
15307;SDS011;7755;52.208;6.964;2022-08-26T08:15:16;20.77;;;18.83;;
15307;SDS011;7755;52.208;6.964;2022-08-26T08:19:19;22.07;;;19.47;;
15307;SDS011;7755;52.208;6.964;2022-08-26T08:23:21;21.10;;;19.00;;
15307;SDS011;7755;52.208;6.964;2022-08-26T08:27:24;25.00;;;19.17;;
15307;SDS011;7755;52.208;6.964;2022-08-26T08:31:27;18.10;;;16.20;;
15307;SDS011;7755;52.208;6.964;2022-08-26T08:35:31;18.00;;;14.93;;
15307;SDS011;7755;52.208;6.964;2022-08-26T08:39:33;16.13;;;14.53;;
15307;SDS011;7755;52.208;6.964;2022-08-26T08:43:39;18.50;;;16.67;;
15307;SDS011;7755;52.208;6.964;2022-08-26T08:47:47;20.43;;;16.20;;
15307;SDS011;7755;52.208;6.964;2022-08-26T08:51:52;17.40;;;15.77;;
15307;SDS011;7755;52.208;6.964;2022-08-26T08:56:02;19.80;;;16.70;;
15307;SDS011;7755;52.208;6.964;2022-08-26T09:00:14;16.87;;;15.27;;
15307;SDS011;7755;52.208;6.964;2022-08-26T09:04:27;16.47;;;14.93;;
15307;SDS011;7755;52.208;6.964;2022-08-26T09:08:58;14.07;;;12.63;;
15307;SDS011;7755;52.208;6.964;2022-08-26T09:13:04;17.20;;;13.40;;
15307;SDS011;7755;52.208;6.964;2022-08-26T09:17:11;11.47;;;10.47;;
15307;SDS011;7755;52.208;6.964;2022-08-26T09:21:25;11.97;;;10.80;;
15307;SDS011;7755;52.208;6.964;2022-08-26T09:25:27;10.83;;;9.33;;
15307;SDS011;7755;52.208;6.964;2022-08-26T09:29:30;11.40;;;10.20;;
15307;SDS011;7755;52.208;6.964;2022-08-26T09:33:40;10.50;;;9.47;;
15307;SDS011;7755;52.208;6.964;2022-08-26T09:37:44;18.40;;;9.73;;
15307;SDS011;7755;52.208;6.964;2022-08-26T09:41:50;12.73;;;9.73;;
15307;SDS011;7755;52.208;6.964;2022-08-26T09:46:11;9.50;;;7.77;;
15307;SDS011;7755;52.208;6.964;2022-08-26T09:50:22;12.77;;;7.67;;
15307;SDS011;7755;52.208;6.964;2022-08-26T09:54:28;8.87;;;6.57;;
15307;SDS011;7755;52.208;6.964;2022-08-26T09:58:31;10.93;;;7.03;;
15307;SDS011;7755;52.208;6.964;2022-08-26T10:02:35;11.73;;;7.97;;
15307;SDS011;7755;52.208;6.964;2022-08-26T10:06:43;11.83;;;7.00;;
15307;SDS011;7755;52.208;6.964;2022-08-26T10:10:57;12.93;;;6.83;;
15307;SDS011;7755;52.208;6.964;2022-08-26T10:15:02;13.23;;;9.57;;
15307;SDS011;7755;52.208;6.964;2022-08-26T10:19:11;24.03;;;18.13;;
15307;SDS011;7755;52.208;6.964;2022-08-26T10:23:22;9.80;;;7.37;;
15307;SDS011;7755;52.208;6.964;2022-08-26T10:27:30;7.87;;;6.43;;
15307;SDS011;7755;52.208;6.964;2022-08-26T10:31:39;6.53;;;5.43;;
15307;SDS011;7755;52.208;6.964;2022-08-26T10:35:47;7.97;;;5.87;;
15307;SDS011;7755;52.208;6.964;2022-08-26T10:39:54;11.73;;;7.37;;
15307;SDS011;7755;52.208;6.964;2022-08-26T10:43:59;10.53;;;6.23;;
15307;SDS011;7755;52.208;6.964;2022-08-26T10:48:04;10.07;;;6.83;;
15307;SDS011;7755;52.208;6.964;2022-08-26T10:52:10;10.47;;;6.37;;
15307;SDS011;7755;52.208;6.964;2022-08-26T10:56:24;7.13;;;6.40;;
15307;SDS011;7755;52.208;6.964;2022-08-26T11:00:35;9.03;;;6.63;;
15307;SDS011;7755;52.208;6.964;2022-08-26T11:05:02;11.60;;;6.70;;
15307;SDS011;7755;52.208;6.964;2022-08-26T11:09:07;8.83;;;6.30;;
15307;SDS011;7755;52.208;6.964;2022-08-26T11:13:10;8.07;;;5.40;;
15307;SDS011;7755;52.208;6.964;2022-08-26T11:17:12;10.80;;;6.50;;
15307;SDS011;7755;52.208;6.964;2022-08-26T11:26:13;10.03;;;5.97;;
15307;SDS011;7755;52.208;6.964;2022-08-26T11:35:10;10.10;;;5.67;;
15307;SDS011;7755;52.208;6.964;2022-08-26T12:03:06;6.83;;;4.07;;
15307;SDS011;7755;52.208;6.964;2022-08-26T12:07:10;11.47;;;7.40;;
15307;SDS011;7755;52.208;6.964;2022-08-26T12:11:19;6.57;;;4.03;;
15307;SDS011;7755;52.208;6.964;2022-08-26T12:15:23;7.53;;;4.43;;
15307;SDS011;7755;52.208;6.964;2022-08-26T12:19:28;9.10;;;4.60;;
15307;SDS011;7755;52.208;6.964;2022-08-26T12:23:37;4.37;;;3.50;;
15307;SDS011;7755;52.208;6.964;2022-08-26T12:27:44;8.13;;;3.97;;
15307;SDS011;7755;52.208;6.964;2022-08-26T12:31:48;7.80;;;4.07;;
15307;SDS011;7755;52.208;6.964;2022-08-26T12:35:52;7.23;;;3.93;;
15307;SDS011;7755;52.208;6.964;2022-08-26T12:40:04;5.50;;;4.00;;
15307;SDS011;7755;52.208;6.964;2022-08-26T12:44:40;5.00;;;3.77;;
15307;SDS011;7755;52.208;6.964;2022-08-26T12:48:46;6.23;;;3.43;;
15307;SDS011;7755;52.208;6.964;2022-08-26T12:52:50;6.30;;;3.37;;
15307;SDS011;7755;52.208;6.964;2022-08-26T12:56:57;5.33;;;3.03;;
15307;SDS011;7755;52.208;6.964;2022-08-26T13:01:20;6.30;;;3.63;;
15307;SDS011;7755;52.208;6.964;2022-08-26T13:05:24;3.97;;;2.70;;
15307;SDS011;7755;52.208;6.964;2022-08-26T13:09:28;5.17;;;3.50;;
15307;SDS011;7755;52.208;6.964;2022-08-26T13:13:32;4.23;;;3.30;;
15307;SDS011;7755;52.208;6.964;2022-08-26T13:17:34;6.03;;;3.40;;
15307;SDS011;7755;52.208;6.964;2022-08-26T13:21:39;5.37;;;4.20;;
15307;SDS011;7755;52.208;6.964;2022-08-26T13:25:44;3.70;;;3.23;;
15307;SDS011;7755;52.208;6.964;2022-08-26T13:29:47;8.43;;;3.80;;
15307;SDS011;7755;52.208;6.964;2022-08-26T13:33:49;5.30;;;3.20;;
15307;SDS011;7755;52.208;6.964;2022-08-26T13:37:51;8.60;;;4.00;;
15307;SDS011;7755;52.208;6.964;2022-08-26T13:41:53;5.33;;;3.00;;
15307;SDS011;7755;52.208;6.964;2022-08-26T13:45:56;3.73;;;2.83;;
15307;SDS011;7755;52.208;6.964;2022-08-26T13:50:00;6.57;;;3.43;;
15307;SDS011;7755;52.208;6.964;2022-08-26T13:54:02;6.00;;;3.10;;
15307;SDS011;7755;52.208;6.964;2022-08-26T13:58:07;4.43;;;3.13;;
15307;SDS011;7755;52.208;6.964;2022-08-26T14:02:10;5.17;;;3.40;;
15307;SDS011;7755;52.208;6.964;2022-08-26T14:06:13;7.87;;;3.20;;
15307;SDS011;7755;52.208;6.964;2022-08-26T14:10:15;4.53;;;3.60;;
15307;SDS011;7755;52.208;6.964;2022-08-26T14:14:17;6.07;;;3.47;;
15307;SDS011;7755;52.208;6.964;2022-08-26T14:18:22;3.80;;;2.80;;
15307;SDS011;7755;52.208;6.964;2022-08-26T14:22:28;6.93;;;4.17;;
15307;SDS011;7755;52.208;6.964;2022-08-26T14:26:34;6.80;;;3.90;;
15307;SDS011;7755;52.208;6.964;2022-08-26T14:30:36;5.27;;;3.83;;
15307;SDS011;7755;52.208;6.964;2022-08-26T14:34:41;4.70;;;3.30;;
15307;SDS011;7755;52.208;6.964;2022-08-26T14:38:43;6.63;;;3.23;;
15307;SDS011;7755;52.208;6.964;2022-08-26T14:42:48;4.47;;;3.50;;
15307;SDS011;7755;52.208;6.964;2022-08-26T14:46:54;5.53;;;3.33;;
15307;SDS011;7755;52.208;6.964;2022-08-26T14:50:58;8.40;;;4.27;;
15307;SDS011;7755;52.208;6.964;2022-08-26T14:55:01;3.33;;;3.00;;
15307;SDS011;7755;52.208;6.964;2022-08-26T14:59:02;6.17;;;3.33;;
15307;SDS011;7755;52.208;6.964;2022-08-26T15:03:06;4.37;;;3.00;;
15307;SDS011;7755;52.208;6.964;2022-08-26T15:07:09;5.87;;;3.53;;
15307;SDS011;7755;52.208;6.964;2022-08-26T15:11:11;5.20;;;3.60;;
15307;SDS011;7755;52.208;6.964;2022-08-26T15:15:14;5.43;;;3.40;;
15307;SDS011;7755;52.208;6.964;2022-08-26T15:19:18;5.70;;;3.33;;
15307;SDS011;7755;52.208;6.964;2022-08-26T15:23:22;4.43;;;2.93;;
15307;SDS011;7755;52.208;6.964;2022-08-26T15:27:23;5.47;;;3.97;;
15307;SDS011;7755;52.208;6.964;2022-08-26T15:31:32;5.83;;;4.03;;
15307;SDS011;7755;52.208;6.964;2022-08-26T15:35:50;5.47;;;3.27;;
15307;SDS011;7755;52.208;6.964;2022-08-26T15:39:54;4.07;;;3.40;;
15307;SDS011;7755;52.208;6.964;2022-08-26T15:43:57;5.10;;;3.00;;
15307;SDS011;7755;52.208;6.964;2022-08-26T15:48:14;4.60;;;3.40;;
15307;SDS011;7755;52.208;6.964;2022-08-26T15:52:17;4.17;;;3.30;;
15307;SDS011;7755;52.208;6.964;2022-08-26T15:56:24;3.60;;;3.13;;
15307;SDS011;7755;52.208;6.964;2022-08-26T16:00:27;4.70;;;3.37;;
15307;SDS011;7755;52.208;6.964;2022-08-26T16:04:29;4.03;;;3.50;;
15307;SDS011;7755;52.208;6.964;2022-08-26T16:08:32;5.10;;;4.60;;
15307;SDS011;7755;52.208;6.964;2022-08-26T16:12:36;3.40;;;3.10;;
15307;SDS011;7755;52.208;6.964;2022-08-26T16:16:39;4.53;;;3.87;;
15307;SDS011;7755;52.208;6.964;2022-08-26T16:20:46;3.43;;;2.80;;
15307;SDS011;7755;52.208;6.964;2022-08-26T16:24:54;8.70;;;6.13;;
15307;SDS011;7755;52.208;6.964;2022-08-26T16:28:59;3.40;;;3.10;;
15307;SDS011;7755;52.208;6.964;2022-08-26T16:33:03;4.03;;;3.07;;
15307;SDS011;7755;52.208;6.964;2022-08-26T16:37:06;9.60;;;8.70;;
15307;SDS011;7755;52.208;6.964;2022-08-26T16:41:17;4.80;;;3.07;;
15307;SDS011;7755;52.208;6.964;2022-08-26T16:45:22;8.30;;;7.50;;
15307;SDS011;7755;52.208;6.964;2022-08-26T16:49:25;5.83;;;3.33;;
15307;SDS011;7755;52.208;6.964;2022-08-26T16:53:27;4.77;;;3.10;;
15307;SDS011;7755;52.208;6.964;2022-08-26T16:57:29;5.83;;;3.23;;
15307;SDS011;7755;52.208;6.964;2022-08-26T17:01:33;3.43;;;3.20;;
15307;SDS011;7755;52.208;6.964;2022-08-26T17:05:35;6.27;;;5.03;;
15307;SDS011;7755;52.208;6.964;2022-08-26T17:09:38;4.03;;;2.40;;
15307;SDS011;7755;52.208;6.964;2022-08-26T17:13:40;5.07;;;2.87;;
15307;SDS011;7755;52.208;6.964;2022-08-26T17:17:44;3.70;;;2.83;;
15307;SDS011;7755;52.208;6.964;2022-08-26T17:21:46;5.67;;;5.00;;
15307;SDS011;7755;52.208;6.964;2022-08-26T17:25:48;4.30;;;3.00;;
15307;SDS011;7755;52.208;6.964;2022-08-26T17:29:51;3.00;;;2.70;;
15307;SDS011;7755;52.208;6.964;2022-08-26T17:33:58;4.63;;;3.17;;
15307;SDS011;7755;52.208;6.964;2022-08-26T17:38:00;6.37;;;4.33;;
15307;SDS011;7755;52.208;6.964;2022-08-26T17:42:02;6.10;;;3.50;;
15307;SDS011;7755;52.208;6.964;2022-08-26T17:46:06;5.00;;;2.60;;
15307;SDS011;7755;52.208;6.964;2022-08-26T17:50:12;4.23;;;2.90;;
15307;SDS011;7755;52.208;6.964;2022-08-26T17:54:17;4.10;;;2.63;;
15307;SDS011;7755;52.208;6.964;2022-08-26T17:58:19;2.87;;;2.40;;
15307;SDS011;7755;52.208;6.964;2022-08-26T18:02:22;4.93;;;3.17;;
15307;SDS011;7755;52.208;6.964;2022-08-26T18:06:27;2.97;;;2.50;;
15307;SDS011;7755;52.208;6.964;2022-08-26T18:10:31;5.23;;;3.20;;
15307;SDS011;7755;52.208;6.964;2022-08-26T18:14:34;4.07;;;3.07;;
15307;SDS011;7755;52.208;6.964;2022-08-26T18:18:37;3.40;;;3.10;;
15307;SDS011;7755;52.208;6.964;2022-08-26T18:22:42;3.97;;;3.27;;
15307;SDS011;7755;52.208;6.964;2022-08-26T18:26:45;5.60;;;3.13;;
15307;SDS011;7755;52.208;6.964;2022-08-26T18:30:50;5.07;;;3.20;;
15307;SDS011;7755;52.208;6.964;2022-08-26T18:34:52;5.13;;;3.40;;
15307;SDS011;7755;52.208;6.964;2022-08-26T18:38:57;4.20;;;3.23;;
15307;SDS011;7755;52.208;6.964;2022-08-26T18:43:00;5.17;;;3.53;;
15307;SDS011;7755;52.208;6.964;2022-08-26T18:47:03;3.20;;;2.90;;
15307;SDS011;7755;52.208;6.964;2022-08-26T18:51:06;6.40;;;2.70;;
15307;SDS011;7755;52.208;6.964;2022-08-26T18:55:12;4.80;;;2.70;;
15307;SDS011;7755;52.208;6.964;2022-08-26T18:59:14;4.00;;;2.60;;
15307;SDS011;7755;52.208;6.964;2022-08-26T19:03:17;4.80;;;2.90;;
15307;SDS011;7755;52.208;6.964;2022-08-26T19:07:19;2.77;;;2.30;;
15307;SDS011;7755;52.208;6.964;2022-08-26T19:11:25;3.90;;;2.60;;
15307;SDS011;7755;52.208;6.964;2022-08-26T19:15:28;5.90;;;2.50;;
15307;SDS011;7755;52.208;6.964;2022-08-26T19:19:30;5.17;;;2.53;;
15307;SDS011;7755;52.208;6.964;2022-08-26T19:23:32;8.07;;;3.07;;
15307;SDS011;7755;52.208;6.964;2022-08-26T19:27:39;4.30;;;2.77;;
15307;SDS011;7755;52.208;6.964;2022-08-26T19:31:41;4.23;;;2.90;;
15307;SDS011;7755;52.208;6.964;2022-08-26T19:35:43;5.67;;;2.97;;
15307;SDS011;7755;52.208;6.964;2022-08-26T19:39:46;5.23;;;2.87;;
15307;SDS011;7755;52.208;6.964;2022-08-26T19:43:50;3.50;;;2.80;;
15307;SDS011;7755;52.208;6.964;2022-08-26T19:47:52;4.67;;;2.77;;
15307;SDS011;7755;52.208;6.964;2022-08-26T19:51:56;4.00;;;2.50;;
15307;SDS011;7755;52.208;6.964;2022-08-26T19:55:58;5.23;;;2.50;;
15307;SDS011;7755;52.208;6.964;2022-08-26T20:00:03;5.43;;;2.20;;
15307;SDS011;7755;52.208;6.964;2022-08-26T20:04:08;4.07;;;2.20;;
15307;SDS011;7755;52.208;6.964;2022-08-26T20:08:11;3.57;;;2.30;;
15307;SDS011;7755;52.208;6.964;2022-08-26T20:12:14;6.00;;;2.43;;
15307;SDS011;7755;52.208;6.964;2022-08-26T20:16:19;4.40;;;1.90;;
15307;SDS011;7755;52.208;6.964;2022-08-26T20:20:21;6.43;;;2.40;;
15307;SDS011;7755;52.208;6.964;2022-08-26T20:24:40;3.67;;;2.20;;
15307;SDS011;7755;52.208;6.964;2022-08-26T20:28:43;2.73;;;1.90;;
15307;SDS011;7755;52.208;6.964;2022-08-26T20:32:46;3.77;;;2.30;;
15307;SDS011;7755;52.208;6.964;2022-08-26T20:36:49;2.23;;;1.90;;
15307;SDS011;7755;52.208;6.964;2022-08-26T20:40:51;6.47;;;2.50;;
15307;SDS011;7755;52.208;6.964;2022-08-26T20:44:54;5.10;;;1.97;;
15307;SDS011;7755;52.208;6.964;2022-08-26T20:48:58;4.10;;;2.13;;
15307;SDS011;7755;52.208;6.964;2022-08-26T20:53:01;4.07;;;2.23;;
15307;SDS011;7755;52.208;6.964;2022-08-26T20:57:04;4.33;;;1.83;;
15307;SDS011;7755;52.208;6.964;2022-08-26T21:01:07;5.97;;;1.97;;
15307;SDS011;7755;52.208;6.964;2022-08-26T21:05:19;3.23;;;2.00;;
15307;SDS011;7755;52.208;6.964;2022-08-26T21:09:22;3.97;;;2.27;;
15307;SDS011;7755;52.208;6.964;2022-08-26T21:13:24;6.47;;;1.70;;
15307;SDS011;7755;52.208;6.964;2022-08-26T21:17:26;3.93;;;2.10;;
15307;SDS011;7755;52.208;6.964;2022-08-26T21:21:31;1.87;;;1.67;;
15307;SDS011;7755;52.208;6.964;2022-08-26T21:25:34;5.93;;;2.50;;
15307;SDS011;7755;52.208;6.964;2022-08-26T21:29:37;2.47;;;1.77;;
15307;SDS011;7755;52.208;6.964;2022-08-26T21:33:40;3.47;;;1.70;;
15307;SDS011;7755;52.208;6.964;2022-08-26T21:37:44;9.20;;;2.40;;
15307;SDS011;7755;52.208;6.964;2022-08-26T21:41:46;3.50;;;1.90;;
15307;SDS011;7755;52.208;6.964;2022-08-26T21:45:49;5.13;;;2.10;;
15307;SDS011;7755;52.208;6.964;2022-08-26T21:49:51;3.87;;;2.10;;
15307;SDS011;7755;52.208;6.964;2022-08-26T21:58:19;4.93;;;2.10;;
15307;SDS011;7755;52.208;6.964;2022-08-26T22:02:20;4.97;;;2.37;;
15307;SDS011;7755;52.208;6.964;2022-08-26T22:06:25;6.00;;;2.30;;
15307;SDS011;7755;52.208;6.964;2022-08-26T22:10:31;6.83;;;2.40;;
15307;SDS011;7755;52.208;6.964;2022-08-26T22:14:33;3.47;;;2.70;;
15307;SDS011;7755;52.208;6.964;2022-08-26T22:18:36;2.83;;;2.20;;
15307;SDS011;7755;52.208;6.964;2022-08-26T22:22:39;6.17;;;2.53;;
15307;SDS011;7755;52.208;6.964;2022-08-26T22:26:42;5.63;;;2.63;;
15307;SDS011;7755;52.208;6.964;2022-08-26T22:30:45;6.33;;;2.50;;
15307;SDS011;7755;52.208;6.964;2022-08-26T22:34:48;4.17;;;2.40;;
15307;SDS011;7755;52.208;6.964;2022-08-26T22:38:51;4.77;;;2.30;;
15307;SDS011;7755;52.208;6.964;2022-08-26T22:42:55;6.57;;;2.30;;
15307;SDS011;7755;52.208;6.964;2022-08-26T22:46:57;5.50;;;2.27;;
15307;SDS011;7755;52.208;6.964;2022-08-26T22:50:59;5.07;;;2.23;;
15307;SDS011;7755;52.208;6.964;2022-08-26T22:55:01;3.93;;;2.47;;
15307;SDS011;7755;52.208;6.964;2022-08-26T22:59:05;4.33;;;2.43;;
15307;SDS011;7755;52.208;6.964;2022-08-26T23:03:08;3.83;;;2.37;;
15307;SDS011;7755;52.208;6.964;2022-08-26T23:07:10;5.37;;;2.67;;
15307;SDS011;7755;52.208;6.964;2022-08-26T23:11:12;3.37;;;2.37;;
15307;SDS011;7755;52.208;6.964;2022-08-26T23:15:18;5.07;;;2.70;;
15307;SDS011;7755;52.208;6.964;2022-08-26T23:19:21;4.37;;;2.30;;
15307;SDS011;7755;52.208;6.964;2022-08-26T23:23:23;3.47;;;2.43;;
15307;SDS011;7755;52.208;6.964;2022-08-26T23:27:26;4.57;;;2.30;;
15307;SDS011;7755;52.208;6.964;2022-08-26T23:31:30;2.13;;;1.83;;
15307;SDS011;7755;52.208;6.964;2022-08-26T23:35:35;4.27;;;2.63;;
15307;SDS011;7755;52.208;6.964;2022-08-26T23:39:37;3.93;;;2.37;;
15307;SDS011;7755;52.208;6.964;2022-08-26T23:43:39;2.87;;;2.03;;
15307;SDS011;7755;52.208;6.964;2022-08-26T23:47:44;4.50;;;2.07;;
15307;SDS011;7755;52.208;6.964;2022-08-26T23:51:50;4.60;;;2.03;;
15307;SDS011;7755;52.208;6.964;2022-08-26T23:56:11;3.43;;;2.10;;
